createdAt,value
2023-04-02T00:01:19.300Z,53.77
2023-04-02T00:04:26.514Z,53.34
2023-04-02T00:07:33.669Z,52.70
2023-04-02T00:10:39.635Z,52.39
2023-04-02T00:13:44.569Z,55.83
2023-04-02T00:16:46.492Z,55.92
2023-04-02T00:19:58.696Z,57.91
2023-04-02T00:23:00.887Z,58.00
2023-04-02T00:26:02.900Z,57.17
2023-04-02T00:29:05.587Z,57.58
2023-04-02T00:32:09.835Z,56.48
2023-04-02T00:35:19.617Z,55.38
2023-04-02T00:38:23.319Z,54.43
2023-04-02T00:41:27.379Z,55.73
2023-04-02T00:44:29.282Z,54.20
2023-04-02T00:47:32.014Z,54.54
2023-04-02T00:50:34.900Z,56.86
2023-04-02T00:53:36.821Z,56.64
2023-04-02T00:56:48.921Z,57.17
2023-04-02T01:00:03.132Z,55.87
2023-04-02T01:03:16.501Z,57.12
2023-04-02T01:06:18.976Z,53.96
2023-04-02T01:09:30.472Z,54.81
2023-04-02T01:12:35.531Z,55.30
2023-04-02T01:15:38.856Z,54.91
2023-04-02T01:18:56.741Z,53.08
2023-04-02T01:22:01.479Z,53.92
2023-04-02T01:25:05.075Z,54.31
2023-04-02T01:28:08.496Z,53.85
2023-04-02T01:31:10.727Z,54.29
2023-04-02T01:34:14.200Z,57.38
2023-04-02T01:37:44.964Z,55.42
2023-04-02T01:40:52.233Z,54.03
2023-04-02T01:43:56.011Z,56.63
2023-04-02T01:47:00.827Z,56.36
2023-04-02T01:50:05.623Z,54.81
2023-04-02T01:53:09.312Z,57.43
2023-04-02T01:56:11.288Z,57.46
2023-04-02T01:59:13.478Z,57.87
2023-04-02T02:02:15.463Z,56.66
2023-04-02T02:05:18.731Z,57.04
2023-04-02T02:08:31.836Z,56.18
2023-04-02T02:11:33.812Z,57.79
2023-04-02T02:14:35.794Z,56.17
2023-04-02T02:17:38.196Z,56.90
2023-04-02T02:20:40.351Z,57.78
2023-04-02T02:23:42.233Z,58.54
2023-04-02T02:26:44.165Z,56.93
2023-04-02T02:29:46.000Z,57.11
2023-04-02T02:33:08.727Z,55.74
2023-04-02T02:36:23.436Z,57.19
2023-04-02T02:39:26.039Z,57.46
2023-04-02T02:42:32.377Z,55.53
2023-04-02T02:45:36.070Z,55.43
2023-04-02T02:48:38.431Z,56.07
2023-04-02T02:51:42.839Z,55.44
2023-04-02T02:54:47.269Z,55.79
2023-04-02T02:57:52.555Z,55.70
2023-04-02T03:00:54.425Z,56.57
2023-04-02T03:03:56.579Z,57.16
2023-04-02T03:06:58.531Z,57.96
2023-04-02T03:10:12.672Z,55.47
2023-04-02T03:13:14.475Z,54.66
2023-04-02T03:16:16.357Z,55.59
2023-04-02T03:19:27.581Z,56.63
2023-04-02T03:22:32.149Z,57.29
2023-04-02T03:25:41.829Z,57.39
2023-04-02T03:28:44.226Z,56.85
2023-04-02T03:31:50.572Z,56.16
2023-04-02T03:34:56.791Z,57.88
2023-04-02T03:38:06.543Z,59.49
2023-04-02T03:41:21.034Z,58.00
2023-04-02T03:44:33.123Z,59.20
2023-04-02T03:47:55.373Z,59.14
2023-04-02T03:51:01.050Z,58.77
2023-04-02T03:54:03.100Z,58.84
2023-04-02T03:57:05.715Z,60.96
2023-04-02T04:00:37.244Z,61.28
2023-04-02T04:03:43.006Z,59.63
2023-04-02T04:06:45.387Z,61.12
2023-04-02T04:09:47.492Z,59.90
2023-04-02T04:12:49.310Z,61.05
2023-04-02T04:16:10.495Z,61.29
2023-04-02T04:19:18.159Z,61.00
2023-04-02T04:22:30.584Z,59.10
2023-04-02T04:25:37.335Z,60.18
2023-04-02T04:29:00.175Z,60.09
2023-04-02T04:32:11.076Z,60.61
2023-04-02T04:35:15.793Z,60.47
2023-04-02T04:38:22.174Z,62.37
2023-04-02T04:41:25.072Z,61.22
2023-04-02T04:44:50.402Z,58.77
2023-04-02T04:47:55.110Z,59.41
2023-04-02T04:51:01.036Z,60.11
2023-04-02T04:54:02.909Z,61.51
2023-04-02T04:57:04.770Z,60.29
2023-04-02T05:00:13.015Z,60.99
2023-04-02T05:03:25.973Z,61.06
2023-04-02T05:06:30.827Z,61.70
2023-04-02T05:09:35.040Z,59.96
2023-04-02T05:12:51.530Z,60.15
2023-04-02T05:16:14.740Z,60.03
2023-04-02T05:19:29.808Z,58.61
2023-04-02T05:22:35.300Z,57.27
2023-04-02T05:25:37.324Z,54.26
2023-04-02T05:28:45.513Z,53.26
2023-04-02T05:32:10.711Z,54.17
2023-04-02T05:35:19.199Z,52.00
2023-04-02T05:38:22.605Z,50.70
2023-04-02T05:41:27.118Z,49.29
2023-04-02T05:44:32.928Z,47.91
2023-04-02T05:47:40.883Z,49.79
2023-04-02T05:50:43.940Z,48.47
2023-04-02T05:53:50.776Z,48.28
2023-04-02T05:56:55.244Z,47.06
2023-04-02T05:59:57.842Z,47.21
2023-04-02T06:03:01.129Z,47.25
2023-04-02T06:06:04.322Z,49.92
2023-04-02T06:09:08.763Z,49.09
2023-04-02T06:12:12.771Z,50.68
2023-04-02T06:15:15.605Z,47.38
2023-04-02T06:18:22.259Z,46.74
2023-04-02T06:21:24.209Z,45.34
2023-04-02T06:24:26.067Z,42.62
2023-04-02T06:27:28.074Z,43.61
2023-04-02T06:30:33.983Z,42.91
2023-04-02T06:33:36.530Z,42.29
2023-04-02T06:36:38.419Z,42.94
2023-04-02T06:39:40.583Z,39.70
2023-04-02T06:42:42.558Z,38.39
2023-04-02T06:45:44.470Z,36.77
2023-04-02T06:48:46.482Z,38.64
2023-04-02T06:51:48.370Z,44.00
2023-04-02T06:54:50.384Z,43.81
2023-04-02T06:57:52.359Z,43.77
2023-04-02T07:00:54.328Z,43.46
2023-04-02T07:03:56.538Z,44.69
2023-04-02T07:06:58.507Z,42.69
2023-04-02T07:10:00.471Z,42.72
2023-04-02T07:13:02.607Z,37.98
2023-04-02T07:16:04.807Z,33.94
2023-04-02T07:19:07.079Z,33.34
2023-04-02T07:22:09.079Z,36.17
2023-04-02T07:25:11.005Z,40.64
2023-04-02T07:28:14.163Z,41.64
2023-04-02T07:31:17.780Z,41.38
2023-04-02T07:34:19.942Z,41.41
2023-04-02T07:37:21.809Z,42.88
2023-04-02T07:40:24.376Z,43.22
2023-04-02T07:43:26.540Z,41.43
2023-04-02T07:46:30.816Z,42.05
2023-04-02T07:49:32.868Z,45.54
2023-04-02T07:52:40.444Z,43.58
2023-04-02T07:55:42.781Z,44.84
2023-04-02T07:58:44.713Z,42.58
2023-04-02T08:01:46.651Z,40.60
2023-04-02T08:04:51.861Z,39.83
2023-04-02T08:07:54.833Z,40.80
2023-04-02T08:10:56.791Z,42.11
2023-04-02T08:13:58.811Z,44.27
2023-04-02T08:17:01.083Z,43.25
2023-04-02T08:20:04.249Z,40.61
2023-04-02T08:23:13.548Z,40.99
2023-04-02T08:26:18.923Z,41.77
2023-04-02T08:29:21.314Z,44.32
2023-04-02T08:32:24.170Z,43.47
2023-04-02T08:35:26.569Z,39.70
2023-04-02T08:38:28.834Z,37.77
2023-04-02T08:41:32.442Z,37.92
2023-04-02T08:44:53.175Z,37.00
2023-04-02T08:47:56.266Z,38.40
2023-04-02T08:50:58.993Z,33.92
2023-04-02T08:54:08.969Z,30.73
2023-04-02T08:57:11.255Z,33.72
2023-04-02T09:00:31.679Z,31.82
2023-04-02T09:03:39.010Z,29.56
2023-04-02T09:06:41.216Z,32.16
2023-04-02T09:09:43.296Z,32.56
2023-04-02T09:12:47.213Z,35.83
2023-04-02T09:15:49.341Z,35.81
2023-04-02T09:18:51.624Z,35.83
2023-04-02T09:21:57.059Z,35.32
2023-04-02T09:25:00.856Z,36.90
2023-04-02T09:28:04.254Z,38.84
2023-04-02T09:31:12.608Z,39.55
2023-04-02T09:34:28.779Z,38.17
2023-04-02T09:37:30.654Z,37.64
2023-04-02T09:40:33.898Z,40.66
2023-04-02T09:43:36.961Z,38.60
2023-04-02T09:46:46.941Z,42.73
2023-04-02T09:49:49.162Z,41.15
2023-04-02T09:52:51.425Z,41.19
2023-04-02T09:56:12.347Z,45.12
2023-04-02T09:59:18.001Z,41.83
2023-04-02T10:02:27.466Z,43.24
2023-04-02T10:05:40.047Z,43.75
2023-04-02T10:08:44.071Z,43.59
2023-04-02T10:11:46.959Z,42.17
2023-04-02T10:14:49.348Z,42.06
2023-04-02T10:17:55.880Z,40.74
2023-04-02T10:20:57.924Z,40.98
2023-04-02T10:23:59.932Z,40.32
2023-04-02T10:27:09.869Z,41.90
2023-04-02T10:30:12.368Z,41.82
2023-04-02T10:33:53.137Z,41.24
2023-04-02T10:36:55.582Z,41.84
2023-04-02T10:40:01.334Z,39.81
2023-04-02T10:43:23.564Z,38.73
2023-04-02T10:46:54.939Z,36.02
2023-04-02T10:50:03.613Z,34.88
2023-04-02T10:53:15.186Z,33.94
2023-04-02T10:56:17.431Z,36.02
2023-04-02T10:59:30.455Z,33.35
2023-04-02T11:02:34.779Z,32.72
2023-04-02T11:05:44.487Z,32.51
2023-04-02T11:08:47.164Z,32.27
2023-04-02T11:11:49.592Z,32.82
2023-04-02T11:14:51.852Z,35.54
2023-04-02T11:17:54.662Z,34.40
2023-04-02T11:20:58.506Z,34.32
2023-04-02T11:24:01.265Z,31.19
2023-04-02T11:27:14.739Z,32.22
2023-04-02T11:30:18.130Z,33.45
2023-04-02T11:33:42.050Z,34.05
2023-04-02T11:36:55.260Z,33.44
2023-04-02T11:39:59.291Z,31.34
2023-04-02T11:43:21.293Z,28.33
2023-04-02T11:46:29.576Z,32.69
2023-04-02T11:49:39.874Z,32.48
2023-04-02T11:52:45.123Z,33.60
2023-04-02T11:55:48.187Z,34.13
2023-04-02T11:58:50.101Z,36.32
2023-04-02T12:01:54.757Z,31.23
2023-04-02T12:04:56.736Z,32.44
2023-04-02T12:08:25.032Z,31.80
2023-04-02T12:11:33.535Z,30.39
2023-04-02T12:14:38.446Z,26.52
2023-04-02T12:17:40.411Z,24.61
2023-04-02T12:20:47.310Z,23.75
2023-04-02T12:23:49.545Z,27.05
2023-04-02T12:27:15.552Z,25.19
2023-04-02T12:30:18.728Z,25.51
2023-04-02T12:33:21.064Z,22.79
2023-04-02T12:36:23.696Z,24.02
2023-04-02T12:39:28.122Z,28.61
2023-04-02T12:42:37.221Z,27.45
2023-04-02T12:45:39.130Z,28.75
2023-04-02T12:48:41.092Z,31.08
2023-04-02T12:51:43.102Z,29.75
2023-04-02T12:54:54.206Z,29.66
2023-04-02T12:57:56.868Z,32.72
2023-04-02T13:01:14.282Z,28.80
2023-04-02T13:04:16.616Z,25.71
2023-04-02T13:07:19.251Z,28.14
2023-04-02T13:10:23.542Z,29.35
2023-04-02T13:13:27.968Z,25.09
2023-04-02T13:16:33.931Z,26.67
2023-04-02T13:19:36.054Z,26.35
2023-04-02T13:22:37.902Z,25.88
2023-04-02T13:25:39.842Z,29.72
2023-04-02T13:28:41.770Z,32.12
2023-04-02T13:31:43.880Z,33.18
2023-04-02T13:34:45.879Z,35.33
2023-04-02T13:37:47.972Z,36.88
2023-04-02T13:40:49.839Z,35.93
2023-04-02T13:43:52.146Z,37.83
2023-04-02T13:46:54.895Z,38.25
2023-04-02T13:49:56.764Z,35.32
2023-04-02T13:52:59.229Z,35.83
2023-04-02T13:56:01.907Z,34.53
2023-04-02T13:59:04.171Z,33.05
2023-04-02T14:02:24.837Z,34.55
2023-04-02T14:05:39.076Z,34.34
2023-04-02T14:08:44.057Z,34.69
2023-04-02T14:12:01.411Z,35.06
2023-04-02T14:15:22.184Z,35.71
2023-04-02T14:18:30.654Z,36.23
2023-04-02T14:21:32.557Z,36.63
2023-04-02T14:24:38.401Z,36.67
2023-04-02T14:27:43.093Z,37.81
2023-04-02T14:30:54.068Z,37.63
2023-04-02T14:33:55.939Z,35.69
2023-04-02T14:37:00.763Z,35.23
2023-04-02T14:40:09.011Z,38.23
2023-04-02T14:43:12.310Z,39.00
2023-04-02T14:46:14.265Z,40.41
2023-04-02T14:49:19.218Z,42.79
2023-04-02T14:52:21.682Z,41.96
2023-04-02T14:55:26.931Z,40.97
2023-04-02T14:58:33.723Z,43.75
2023-04-02T15:01:37.393Z,46.65
2023-04-02T15:04:43.418Z,48.33
2023-04-02T15:07:47.349Z,48.18
2023-04-02T15:10:55.119Z,51.16
2023-04-02T15:14:06.246Z,50.85
2023-04-02T15:17:10.830Z,56.31
2023-04-02T15:20:14.016Z,57.17
2023-04-02T15:23:23.326Z,59.32
2023-04-02T15:26:26.468Z,57.65
2023-04-02T15:29:37.725Z,58.71
2023-04-02T15:32:40.132Z,60.05
2023-04-02T15:35:47.313Z,61.69
2023-04-02T15:38:50.952Z,61.47
2023-04-02T15:42:22.698Z,61.32
2023-04-02T15:45:27.967Z,62.56
2023-04-02T15:48:33.180Z,61.15
2023-04-02T15:52:05.477Z,64.30
2023-04-02T15:55:10.700Z,61.72
2023-04-02T15:58:16.216Z,58.37
2023-04-02T16:01:23.099Z,56.33
2023-04-02T16:04:43.939Z,55.96
2023-04-02T16:08:21.869Z,54.35
2023-04-02T16:11:24.062Z,58.45
2023-04-02T16:14:32.200Z,55.38
2023-04-02T16:17:36.642Z,54.77
2023-04-02T16:20:40.021Z,58.85
2023-04-02T16:23:42.554Z,57.49
2023-04-02T16:26:44.473Z,57.79
2023-04-02T16:30:05.134Z,58.44
2023-04-02T16:33:13.029Z,56.14
2023-04-02T16:36:24.208Z,59.14
2023-04-02T16:39:29.187Z,57.58
2023-04-02T16:42:36.473Z,56.47
2023-04-02T16:45:47.844Z,54.97
2023-04-02T16:48:51.548Z,57.29
2023-04-02T16:52:00.422Z,59.37
2023-04-02T16:55:15.592Z,63.52
2023-04-02T16:58:32.936Z,64.46
2023-04-02T17:01:38.548Z,64.63
2023-04-02T17:04:59.004Z,58.05
2023-04-02T17:08:19.517Z,59.75
2023-04-02T17:11:25.092Z,64.08
2023-04-02T17:14:28.497Z,55.23
2023-04-02T17:17:31.609Z,52.90
2023-04-02T17:20:33.615Z,55.13
2023-04-02T17:23:56.392Z,53.78
2023-04-02T17:27:17.647Z,54.34
2023-04-02T17:30:22.011Z,52.72
2023-04-02T17:33:26.932Z,52.30
2023-04-02T17:36:35.355Z,52.85
2023-04-02T17:39:42.004Z,52.83
2023-04-02T17:42:47.029Z,53.10
2023-04-02T17:45:52.977Z,52.64
2023-04-02T17:48:58.490Z,51.76
2023-04-02T17:52:01.276Z,49.50
2023-04-02T17:55:18.313Z,48.58
2023-04-02T17:58:26.445Z,50.04
2023-04-02T18:01:34.746Z,50.09
2023-04-02T18:04:55.670Z,51.56
2023-04-02T18:08:03.824Z,51.69
2023-04-02T18:11:24.536Z,51.09
2023-04-02T18:14:35.736Z,49.89
2023-04-02T18:17:40.936Z,50.20
2023-04-02T18:20:48.176Z,48.98
2023-04-02T18:23:56.297Z,49.55
2023-04-02T18:27:06.101Z,48.96
2023-04-02T18:30:34.154Z,48.12
2023-04-02T18:33:40.934Z,49.79
2023-04-02T18:36:42.972Z,50.95
2023-04-02T18:39:53.847Z,50.72
2023-04-02T18:42:58.952Z,51.84
2023-04-02T18:46:19.578Z,50.62
2023-04-02T18:49:29.254Z,51.57
2023-04-02T18:52:31.372Z,52.46
2023-04-02T18:55:33.335Z,51.24
2023-04-02T18:58:42.821Z,50.88
2023-04-02T19:01:46.546Z,50.46
2023-04-02T19:05:13.637Z,51.55
2023-04-02T19:08:15.512Z,51.26
2023-04-02T19:11:18.552Z,52.97
2023-04-02T19:14:21.353Z,51.35
2023-04-02T19:17:26.265Z,51.90
2023-04-02T19:20:50.407Z,51.57
2023-04-02T19:23:58.476Z,51.19
2023-04-02T19:27:00.559Z,51.03
2023-04-02T19:30:20.643Z,52.43
2023-04-02T19:33:33.822Z,51.27
2023-04-02T19:36:41.017Z,51.53
2023-04-02T19:40:03.234Z,50.72
2023-04-02T19:43:06.484Z,52.73
2023-04-02T19:46:08.433Z,50.19
2023-04-02T19:49:13.322Z,49.79
2023-04-02T19:52:15.497Z,49.96
2023-04-02T19:55:17.404Z,50.87
2023-04-02T19:58:25.488Z,51.58
2023-04-02T20:01:27.496Z,52.55
2023-04-02T20:04:29.356Z,52.48
2023-04-02T20:07:31.575Z,52.42
2023-04-02T20:10:33.442Z,52.90
2023-04-02T20:13:35.490Z,52.75
2023-04-02T20:16:38.708Z,50.64
2023-04-02T20:19:40.805Z,52.97
2023-04-02T20:22:42.673Z,53.51
2023-04-02T20:25:45.684Z,52.58
2023-04-02T20:28:47.564Z,52.06
2023-04-02T20:31:49.429Z,52.04
2023-04-02T20:34:51.371Z,52.88
2023-04-02T20:37:53.533Z,52.47
2023-04-02T20:40:55.613Z,51.22
2023-04-02T20:43:57.620Z,50.72
2023-04-02T20:46:59.527Z,52.92
2023-04-02T20:50:01.632Z,52.08
2023-04-02T20:53:03.507Z,52.84
2023-04-02T20:56:10.134Z,53.68
2023-04-02T20:59:12.064Z,50.90
2023-04-02T21:02:13.929Z,51.92
2023-04-02T21:05:16.086Z,54.14
2023-04-02T21:08:18.367Z,51.82
2023-04-02T21:11:21.987Z,51.95
2023-04-02T21:14:24.120Z,52.78
2023-04-02T21:17:26.134Z,53.68
2023-04-02T21:20:28.074Z,54.17
2023-04-02T21:23:30.360Z,57.13
2023-04-02T21:26:34.810Z,54.95
2023-04-02T21:29:36.920Z,55.94
2023-04-02T21:32:38.825Z,54.09
2023-04-02T21:35:40.832Z,55.72
2023-04-02T21:38:46.675Z,55.69
2023-04-02T21:41:51.984Z,54.12
2023-04-02T21:44:53.919Z,53.07
2023-04-02T21:47:55.880Z,53.98
2023-04-02T21:51:04.872Z,54.22
2023-04-02T21:54:06.769Z,55.12
2023-04-02T21:57:08.813Z,54.46
2023-04-02T22:00:12.436Z,55.13
2023-04-02T22:03:24.945Z,53.29
2023-04-02T22:06:31.779Z,53.10
2023-04-02T22:09:33.690Z,52.89
2023-04-02T22:12:35.524Z,53.40
2023-04-02T22:15:37.429Z,53.00
2023-04-02T22:18:39.409Z,52.94
2023-04-02T22:21:41.683Z,52.79
2023-04-02T22:24:43.566Z,51.10
2023-04-02T22:27:45.433Z,51.70
2023-04-02T22:30:47.441Z,49.38
2023-04-02T22:33:50.392Z,50.69
2023-04-02T22:36:53.073Z,50.88
2023-04-02T22:39:55.371Z,50.45
2023-04-02T22:42:57.231Z,51.37
2023-04-02T22:45:59.241Z,51.35
2023-04-02T22:49:01.081Z,50.61
2023-04-02T22:52:05.831Z,50.30
2023-04-02T22:55:08.327Z,52.04
2023-04-02T22:58:10.242Z,51.85
2023-04-02T23:01:12.306Z,52.32
2023-04-02T23:04:14.219Z,51.66
2023-04-02T23:07:16.303Z,51.19
2023-04-02T23:10:18.207Z,51.36
2023-04-02T23:13:20.540Z,51.38
2023-04-02T23:16:23.023Z,52.00
2023-04-02T23:19:25.227Z,51.60
2023-04-02T23:22:27.164Z,51.06
2023-04-02T23:25:29.077Z,49.93
2023-04-02T23:28:31.181Z,50.41
2023-04-02T23:31:33.062Z,51.19
2023-04-02T23:34:35.070Z,50.89
2023-04-02T23:37:36.931Z,51.42
2023-04-02T23:40:38.857Z,51.49
2023-04-02T23:43:40.920Z,50.98
2023-04-02T23:46:42.871Z,50.42
2023-04-02T23:49:47.889Z,48.85
2023-04-02T23:52:50.219Z,50.68
2023-04-02T23:55:52.104Z,51.31
2023-04-02T23:58:53.970Z,51.84
